sensor_id;sensor_type;location;lat;lon;timestamp;pressure;altitude;pressure_sealevel;temperature;humidity
58668;BME280;59852;43.086;25.634;2023-06-22T00:01:16;99112.38;;;20.12;87.88
58668;BME280;59852;43.086;25.634;2023-06-22T00:03:41;99117.47;;;20.05;89.03
58668;BME280;59852;43.086;25.634;2023-06-22T00:06:07;99108.44;;;19.82;90.02
58668;BME280;59852;43.086;25.634;2023-06-22T00:08:32;99110.13;;;19.91;89.71
58668;BME280;59852;43.086;25.634;2023-06-22T00:10:57;99112.78;;;19.91;89.25
58668;BME280;59852;43.086;25.634;2023-06-22T00:13:23;99098.81;;;19.81;89.56
58668;BME280;59852;43.086;25.634;2023-06-22T00:15:48;99104.91;;;19.73;90.40
58668;BME280;59852;43.086;25.634;2023-06-22T00:18:13;99111.53;;;19.69;89.94
58668;BME280;59852;43.086;25.634;2023-06-22T00:20:39;99111.25;;;19.80;89.50
58668;BME280;59852;43.086;25.634;2023-06-22T00:23:05;99112.03;;;19.72;89.44
58668;BME280;59852;43.086;25.634;2023-06-22T00:25:37;99121.09;;;19.62;89.25
58668;BME280;59852;43.086;25.634;2023-06-22T00:28:03;99116.31;;;19.65;89.13
58668;BME280;59852;43.086;25.634;2023-06-22T00:30:30;99115.06;;;19.52;89.79
58668;BME280;59852;43.086;25.634;2023-06-22T00:32:55;99114.97;;;19.61;90.02
58668;BME280;59852;43.086;25.634;2023-06-22T00:35:21;99112.97;;;19.63;89.29
58668;BME280;59852;43.086;25.634;2023-06-22T00:37:46;99106.78;;;19.55;89.87
58668;BME280;59852;43.086;25.634;2023-06-22T00:40:11;99109.06;;;19.75;88.79
58668;BME280;59852;43.086;25.634;2023-06-22T00:42:38;99109.03;;;19.67;89.20
58668;BME280;59852;43.086;25.634;2023-06-22T00:45:04;99106.50;;;19.58;89.64
58668;BME280;59852;43.086;25.634;2023-06-22T00:47:30;99109.25;;;19.48;90.44
58668;BME280;59852;43.086;25.634;2023-06-22T00:49:55;99113.72;;;19.47;90.08
58668;BME280;59852;43.086;25.634;2023-06-22T00:52:21;99113.22;;;19.52;90.01
58668;BME280;59852;43.086;25.634;2023-06-22T00:54:51;99117.13;;;19.58;89.31
58668;BME280;59852;43.086;25.634;2023-06-22T00:57:17;99119.91;;;19.56;89.41
58668;BME280;59852;43.086;25.634;2023-06-22T00:59:43;99113.28;;;19.34;90.28
58668;BME280;59852;43.086;25.634;2023-06-22T01:02:09;99119.91;;;19.30;91.02
58668;BME280;59852;43.086;25.634;2023-06-22T01:04:35;99113.97;;;19.10;91.46
58668;BME280;59852;43.086;25.634;2023-06-22T01:09:37;99106.84;;;19.11;91.25
58668;BME280;59852;43.086;25.634;2023-06-22T01:12:06;99109.13;;;19.32;90.05
58668;BME280;59852;43.086;25.634;2023-06-22T01:14:37;99099.63;;;19.21;90.58
58668;BME280;59852;43.086;25.634;2023-06-22T01:17:05;99100.94;;;19.25;90.57
58668;BME280;59852;43.086;25.634;2023-06-22T01:19:40;99096.44;;;19.17;90.60
58668;BME280;59852;43.086;25.634;2023-06-22T01:22:08;99093.28;;;18.96;91.63
58668;BME280;59852;43.086;25.634;2023-06-22T01:27:31;99100.34;;;19.31;90.64
58668;BME280;59852;43.086;25.634;2023-06-22T01:29:57;99088.31;;;19.45;88.55
58668;BME280;59852;43.086;25.634;2023-06-22T01:32:27;99088.81;;;18.97;90.64
58668;BME280;59852;43.086;25.634;2023-06-22T01:34:53;99092.19;;;19.07;90.59
58668;BME280;59852;43.086;25.634;2023-06-22T01:37:19;99093.66;;;19.01;91.46
58668;BME280;59852;43.086;25.634;2023-06-22T01:39:44;99094.44;;;18.76;92.58
58668;BME280;59852;43.086;25.634;2023-06-22T01:42:10;99104.59;;;18.62;93.57
58668;BME280;59852;43.086;25.634;2023-06-22T01:44:35;99104.38;;;18.74;93.23
58668;BME280;59852;43.086;25.634;2023-06-22T01:47:01;99106.03;;;18.92;92.21
58668;BME280;59852;43.086;25.634;2023-06-22T01:49:27;99107.44;;;19.05;91.21
58668;BME280;59852;43.086;25.634;2023-06-22T01:51:52;99097.97;;;19.02;91.02
58668;BME280;59852;43.086;25.634;2023-06-22T01:54:19;99104.88;;;18.95;92.01
58668;BME280;59852;43.086;25.634;2023-06-22T01:56:44;99106.44;;;18.80;92.89
58668;BME280;59852;43.086;25.634;2023-06-22T01:59:23;99106.75;;;19.20;91.28
58668;BME280;59852;43.086;25.634;2023-06-22T02:01:53;99107.59;;;19.03;91.02
58668;BME280;59852;43.086;25.634;2023-06-22T02:04:21;99109.44;;;18.85;92.27
58668;BME280;59852;43.086;25.634;2023-06-22T02:06:47;99110.16;;;18.69;93.40
58668;BME280;59852;43.086;25.634;2023-06-22T02:09:16;99113.13;;;19.10;91.49
58668;BME280;59852;43.086;25.634;2023-06-22T02:11:42;99113.91;;;18.84;91.74
58668;BME280;59852;43.086;25.634;2023-06-22T02:14:08;99113.22;;;18.65;93.68
58668;BME280;59852;43.086;25.634;2023-06-22T02:16:34;99112.38;;;18.64;93.92
58668;BME280;59852;43.086;25.634;2023-06-22T02:19:01;99116.94;;;18.72;93.49
58668;BME280;59852;43.086;25.634;2023-06-22T02:21:28;99120.94;;;18.76;92.68
58668;BME280;59852;43.086;25.634;2023-06-22T02:23:53;99116.13;;;18.71;92.48
58668;BME280;59852;43.086;25.634;2023-06-22T02:26:19;99125.09;;;18.60;92.46
58668;BME280;59852;43.086;25.634;2023-06-22T02:28:44;99133.94;;;18.51;93.33
58668;BME280;59852;43.086;25.634;2023-06-22T02:31:11;99134.03;;;18.59;93.38
58668;BME280;59852;43.086;25.634;2023-06-22T02:33:36;99135.44;;;18.54;93.00
58668;BME280;59852;43.086;25.634;2023-06-22T02:36:02;99144.28;;;18.45;93.63
58668;BME280;59852;43.086;25.634;2023-06-22T02:38:30;99147.28;;;18.77;93.06
58668;BME280;59852;43.086;25.634;2023-06-22T02:40:58;99140.41;;;18.84;92.68
58668;BME280;59852;43.086;25.634;2023-06-22T02:43:23;99139.25;;;18.87;92.41
58668;BME280;59852;43.086;25.634;2023-06-22T02:45:49;99148.34;;;18.67;93.70
58668;BME280;59852;43.086;25.634;2023-06-22T02:48:14;99154.47;;;18.67;93.86
58668;BME280;59852;43.086;25.634;2023-06-22T02:50:39;99155.56;;;18.74;93.36
58668;BME280;59852;43.086;25.634;2023-06-22T02:53:05;99146.72;;;18.56;93.76
58668;BME280;59852;43.086;25.634;2023-06-22T02:55:30;99153.00;;;18.55;93.56
58668;BME280;59852;43.086;25.634;2023-06-22T02:57:56;99155.91;;;18.61;93.88
58668;BME280;59852;43.086;25.634;2023-06-22T03:00:24;99159.38;;;18.62;94.10
58668;BME280;59852;43.086;25.634;2023-06-22T03:02:55;99160.19;;;18.72;93.28
58668;BME280;59852;43.086;25.634;2023-06-22T03:05:20;99159.28;;;18.54;93.51
58668;BME280;59852;43.086;25.634;2023-06-22T03:07:46;99154.53;;;18.40;94.19
58668;BME280;59852;43.086;25.634;2023-06-22T03:10:12;99159.50;;;18.43;94.40
58668;BME280;59852;43.086;25.634;2023-06-22T03:12:38;99169.66;;;18.47;93.89
58668;BME280;59852;43.086;25.634;2023-06-22T03:15:07;99167.44;;;18.70;93.47
58668;BME280;59852;43.086;25.634;2023-06-22T03:17:33;99170.72;;;18.82;92.86
58668;BME280;59852;43.086;25.634;2023-06-22T03:19:58;99161.53;;;18.94;92.17
58668;BME280;59852;43.086;25.634;2023-06-22T03:22:24;99174.19;;;18.82;91.99
58668;BME280;59852;43.086;25.634;2023-06-22T03:24:49;99171.91;;;18.87;92.67
58668;BME280;59852;43.086;25.634;2023-06-22T03:27:14;99158.44;;;18.99;92.21
58668;BME280;59852;43.086;25.634;2023-06-22T03:29:40;99167.38;;;18.98;92.56
58668;BME280;59852;43.086;25.634;2023-06-22T03:32:05;99174.25;;;19.08;92.14
58668;BME280;59852;43.086;25.634;2023-06-22T03:34:31;99179.03;;;19.05;93.04
58668;BME280;59852;43.086;25.634;2023-06-22T03:36:59;99178.03;;;19.24;92.30
58668;BME280;59852;43.086;25.634;2023-06-22T03:39:24;99169.91;;;19.25;91.74
58668;BME280;59852;43.086;25.634;2023-06-22T03:41:50;99177.00;;;19.42;91.35
58668;BME280;59852;43.086;25.634;2023-06-22T03:44:15;99179.97;;;19.39;91.30
58668;BME280;59852;43.086;25.634;2023-06-22T03:46:40;99185.84;;;19.51;91.16
58668;BME280;59852;43.086;25.634;2023-06-22T03:49:06;99184.50;;;19.47;91.60
58668;BME280;59852;43.086;25.634;2023-06-22T03:51:32;99186.72;;;19.34;92.57
58668;BME280;59852;43.086;25.634;2023-06-22T03:53:57;99180.72;;;19.49;91.43
58668;BME280;59852;43.086;25.634;2023-06-22T03:56:22;99180.66;;;19.41;91.25
58668;BME280;59852;43.086;25.634;2023-06-22T03:58:48;99186.59;;;19.17;92.01
58668;BME280;59852;43.086;25.634;2023-06-22T04:01:13;99196.06;;;19.02;92.99
58668;BME280;59852;43.086;25.634;2023-06-22T04:03:39;99189.84;;;19.11;90.14
58668;BME280;59852;43.086;25.634;2023-06-22T04:06:04;99194.09;;;19.22;90.00
58668;BME280;59852;43.086;25.634;2023-06-22T04:08:29;99192.75;;;19.00;92.36
58668;BME280;59852;43.086;25.634;2023-06-22T04:10:55;99193.63;;;19.27;90.13
58668;BME280;59852;43.086;25.634;2023-06-22T04:13:20;99190.34;;;19.51;88.13
58668;BME280;59852;43.086;25.634;2023-06-22T04:15:46;99195.88;;;19.57;88.01
58668;BME280;59852;43.086;25.634;2023-06-22T04:18:11;99198.19;;;19.78;85.83
58668;BME280;59852;43.086;25.634;2023-06-22T04:20:36;99197.03;;;19.81;86.07
58668;BME280;59852;43.086;25.634;2023-06-22T04:23:02;99206.22;;;19.94;86.53
58668;BME280;59852;43.086;25.634;2023-06-22T04:25:27;99200.72;;;19.88;85.50
58668;BME280;59852;43.086;25.634;2023-06-22T04:27:52;99205.19;;;19.87;82.91
58668;BME280;59852;43.086;25.634;2023-06-22T04:30:17;99207.81;;;19.79;84.07
58668;BME280;59852;43.086;25.634;2023-06-22T04:32:43;99211.41;;;20.04;82.57
58668;BME280;59852;43.086;25.634;2023-06-22T04:35:09;99205.63;;;20.09;82.76
58668;BME280;59852;43.086;25.634;2023-06-22T04:37:35;99210.19;;;19.90;83.48
58668;BME280;59852;43.086;25.634;2023-06-22T04:40:00;99211.22;;;19.97;83.42
58668;BME280;59852;43.086;25.634;2023-06-22T04:42:26;99216.75;;;20.12;83.58
58668;BME280;59852;43.086;25.634;2023-06-22T04:44:51;99207.97;;;20.12;83.50
58668;BME280;59852;43.086;25.634;2023-06-22T04:47:16;99214.28;;;20.11;82.40
58668;BME280;59852;43.086;25.634;2023-06-22T04:49:42;99216.44;;;20.15;82.97
58668;BME280;59852;43.086;25.634;2023-06-22T04:52:09;99212.19;;;20.65;80.94
58668;BME280;59852;43.086;25.634;2023-06-22T04:54:35;99216.78;;;20.46;80.29
58668;BME280;59852;43.086;25.634;2023-06-22T04:57:02;99217.03;;;20.77;78.52
58668;BME280;59852;43.086;25.634;2023-06-22T04:59:28;99207.44;;;20.84;78.75
58668;BME280;59852;43.086;25.634;2023-06-22T05:01:57;99219.25;;;20.98;77.42
58668;BME280;59852;43.086;25.634;2023-06-22T05:04:23;99220.41;;;21.12;77.60
58668;BME280;59852;43.086;25.634;2023-06-22T05:06:49;99211.78;;;21.18;77.32
58668;BME280;59852;43.086;25.634;2023-06-22T05:09:14;99220.75;;;21.09;77.69
58668;BME280;59852;43.086;25.634;2023-06-22T05:11:40;99214.09;;;21.21;77.47
58668;BME280;59852;43.086;25.634;2023-06-22T05:14:05;99211.97;;;21.25;76.44
58668;BME280;59852;43.086;25.634;2023-06-22T05:16:30;99213.16;;;21.38;76.01
58668;BME280;59852;43.086;25.634;2023-06-22T05:18:56;99209.91;;;20.86;77.00
58668;BME280;59852;43.086;25.634;2023-06-22T05:21:22;99211.59;;;21.19;77.42
58668;BME280;59852;43.086;25.634;2023-06-22T05:23:47;99213.13;;;21.30;76.33
58668;BME280;59852;43.086;25.634;2023-06-22T05:26:13;99208.13;;;21.52;76.73
58668;BME280;59852;43.086;25.634;2023-06-22T05:28:38;99207.66;;;21.40;76.56
58668;BME280;59852;43.086;25.634;2023-06-22T05:31:03;99218.44;;;21.63;75.54
58668;BME280;59852;43.086;25.634;2023-06-22T05:33:29;99214.97;;;21.54;74.94
58668;BME280;59852;43.086;25.634;2023-06-22T05:35:54;99222.75;;;21.72;74.13
58668;BME280;59852;43.086;25.634;2023-06-22T05:38:19;99217.59;;;21.79;73.19
58668;BME280;59852;43.086;25.634;2023-06-22T05:40:45;99216.22;;;21.83;72.34
58668;BME280;59852;43.086;25.634;2023-06-22T05:43:10;99218.75;;;21.84;71.00
58668;BME280;59852;43.086;25.634;2023-06-22T05:45:35;99212.56;;;21.92;71.81
58668;BME280;59852;43.086;25.634;2023-06-22T05:48:01;99213.03;;;22.12;70.88
58668;BME280;59852;43.086;25.634;2023-06-22T05:50:26;99207.84;;;22.18;71.47
58668;BME280;59852;43.086;25.634;2023-06-22T05:52:52;99202.38;;;22.12;72.23
58668;BME280;59852;43.086;25.634;2023-06-22T05:55:17;99203.50;;;22.25;72.08
58668;BME280;59852;43.086;25.634;2023-06-22T05:57:44;99209.47;;;22.27;72.51
58668;BME280;59852;43.086;25.634;2023-06-22T06:00:09;99210.75;;;22.40;71.92
58668;BME280;59852;43.086;25.634;2023-06-22T06:02:36;99213.88;;;22.51;71.75
58668;BME280;59852;43.086;25.634;2023-06-22T06:05:01;99219.88;;;22.53;70.88
58668;BME280;59852;43.086;25.634;2023-06-22T06:07:27;99206.19;;;22.56;71.42
58668;BME280;59852;43.086;25.634;2023-06-22T06:09:53;99226.31;;;22.20;72.74
58668;BME280;59852;43.086;25.634;2023-06-22T06:12:18;99223.34;;;22.62;72.58
58668;BME280;59852;43.086;25.634;2023-06-22T06:14:43;99216.88;;;22.79;72.37
58668;BME280;59852;43.086;25.634;2023-06-22T06:17:09;99218.66;;;22.95;73.51
58668;BME280;59852;43.086;25.634;2023-06-22T06:19:34;99223.53;;;22.92;73.07
58668;BME280;59852;43.086;25.634;2023-06-22T06:21:59;99231.44;;;23.00;71.69
58668;BME280;59852;43.086;25.634;2023-06-22T06:24:25;99233.22;;;22.84;72.96
58668;BME280;59852;43.086;25.634;2023-06-22T06:26:50;99230.44;;;22.70;74.59
58668;BME280;59852;43.086;25.634;2023-06-22T06:29:16;99222.22;;;22.87;73.64
58668;BME280;59852;43.086;25.634;2023-06-22T06:31:41;99224.41;;;23.07;75.00
58668;BME280;59852;43.086;25.634;2023-06-22T06:34:07;99233.31;;;22.60;73.56
58668;BME280;59852;43.086;25.634;2023-06-22T06:36:32;99219.69;;;22.94;73.56
58668;BME280;59852;43.086;25.634;2023-06-22T06:38:57;99216.03;;;23.10;74.20
58668;BME280;59852;43.086;25.634;2023-06-22T06:41:23;99215.75;;;23.05;73.00
58668;BME280;59852;43.086;25.634;2023-06-22T06:43:48;99220.50;;;23.17;72.91
58668;BME280;59852;43.086;25.634;2023-06-22T06:46:14;99221.03;;;23.36;72.30
58668;BME280;59852;43.086;25.634;2023-06-22T06:48:39;99219.75;;;23.46;71.82
58668;BME280;59852;43.086;25.634;2023-06-22T06:51:05;99217.47;;;23.58;71.89
58668;BME280;59852;43.086;25.634;2023-06-22T06:53:30;99211.22;;;23.51;71.94
58668;BME280;59852;43.086;25.634;2023-06-22T06:55:56;99212.31;;;23.57;71.82
58668;BME280;59852;43.086;25.634;2023-06-22T06:58:21;99207.88;;;23.49;72.42
58668;BME280;59852;43.086;25.634;2023-06-22T07:00:48;99215.00;;;23.57;72.70
58668;BME280;59852;43.086;25.634;2023-06-22T07:03:13;99214.97;;;23.65;71.95
58668;BME280;59852;43.086;25.634;2023-06-22T07:05:39;99216.72;;;23.87;71.16
58668;BME280;59852;43.086;25.634;2023-06-22T07:08:04;99215.81;;;23.95;70.94
58668;BME280;59852;43.086;25.634;2023-06-22T07:10:30;99216.75;;;24.02;69.62
58668;BME280;59852;43.086;25.634;2023-06-22T07:12:55;99209.75;;;24.01;69.45
58668;BME280;59852;43.086;25.634;2023-06-22T07:15:22;99215.72;;;24.18;69.96
58668;BME280;59852;43.086;25.634;2023-06-22T07:17:47;99210.38;;;24.18;68.42
58668;BME280;59852;43.086;25.634;2023-06-22T07:20:12;99207.53;;;24.19;68.90
58668;BME280;59852;43.086;25.634;2023-06-22T07:22:38;99218.50;;;24.24;68.96
58668;BME280;59852;43.086;25.634;2023-06-22T07:25:04;99212.97;;;24.26;68.67
58668;BME280;59852;43.086;25.634;2023-06-22T07:28:19;99214.16;;;24.23;67.06
58668;BME280;59852;43.086;25.634;2023-06-22T07:30:20;99215.66;;;24.41;68.64
58668;BME280;59852;43.086;25.634;2023-06-22T07:32:45;99220.44;;;24.30;67.50
58668;BME280;59852;43.086;25.634;2023-06-22T07:35:11;99227.53;;;24.38;67.42
58668;BME280;59852;43.086;25.634;2023-06-22T07:37:37;99220.78;;;24.57;66.65
58668;BME280;59852;43.086;25.634;2023-06-22T07:40:02;99222.91;;;24.62;65.64
58668;BME280;59852;43.086;25.634;2023-06-22T07:42:31;99213.59;;;24.57;67.01
58668;BME280;59852;43.086;25.634;2023-06-22T07:44:57;99225.91;;;24.88;64.65
58668;BME280;59852;43.086;25.634;2023-06-22T07:47:23;99217.28;;;24.93;62.69
58668;BME280;59852;43.086;25.634;2023-06-22T07:49:50;99211.28;;;24.91;63.10
58668;BME280;59852;43.086;25.634;2023-06-22T07:52:16;99208.78;;;25.04;62.66
58668;BME280;59852;43.086;25.634;2023-06-22T07:54:42;99209.81;;;25.03;62.39
58668;BME280;59852;43.086;25.634;2023-06-22T07:57:07;99204.28;;;24.89;62.39
58668;BME280;59852;43.086;25.634;2023-06-22T07:59:32;99208.78;;;25.04;61.68
58668;BME280;59852;43.086;25.634;2023-06-22T08:01:58;99217.31;;;25.14;61.65
58668;BME280;59852;43.086;25.634;2023-06-22T08:04:23;99209.84;;;25.31;62.04
58668;BME280;59852;43.086;25.634;2023-06-22T08:06:48;99208.66;;;24.97;61.70
58668;BME280;59852;43.086;25.634;2023-06-22T08:09:14;99200.59;;;25.33;62.03
58668;BME280;59852;43.086;25.634;2023-06-22T08:11:39;99201.72;;;25.45;61.65
58668;BME280;59852;43.086;25.634;2023-06-22T08:14:05;99210.13;;;25.64;62.08
58668;BME280;59852;43.086;25.634;2023-06-22T08:16:30;99211.03;;;25.71;61.75
58668;BME280;59852;43.086;25.634;2023-06-22T08:18:55;99202.41;;;25.54;62.10
58668;BME280;59852;43.086;25.634;2023-06-22T08:21:21;99198.69;;;25.49;61.55
58668;BME280;59852;43.086;25.634;2023-06-22T08:23:47;99197.59;;;25.43;61.72
58668;BME280;59852;43.086;25.634;2023-06-22T08:26:13;99199.41;;;25.64;63.17
58668;BME280;59852;43.086;25.634;2023-06-22T08:28:39;99201.03;;;25.58;61.14
58668;BME280;59852;43.086;25.634;2023-06-22T08:31:04;99208.06;;;25.66;61.36
58668;BME280;59852;43.086;25.634;2023-06-22T08:33:29;99215.31;;;25.44;58.89
58668;BME280;59852;43.086;25.634;2023-06-22T08:35:56;99212.59;;;25.65;58.12
58668;BME280;59852;43.086;25.634;2023-06-22T08:38:21;99209.44;;;25.77;57.94
58668;BME280;59852;43.086;25.634;2023-06-22T08:40:47;99206.56;;;25.78;59.29
58668;BME280;59852;43.086;25.634;2023-06-22T08:43:12;99203.41;;;26.02;58.99
58668;BME280;59852;43.086;25.634;2023-06-22T08:45:37;99207.50;;;25.98;57.60
58668;BME280;59852;43.086;25.634;2023-06-22T08:48:03;99193.19;;;26.19;55.99
58668;BME280;59852;43.086;25.634;2023-06-22T08:50:28;99200.41;;;26.19;58.24
58668;BME280;59852;43.086;25.634;2023-06-22T08:52:53;99204.38;;;26.29;56.91
58668;BME280;59852;43.086;25.634;2023-06-22T08:55:19;99204.78;;;26.26;56.00
58668;BME280;59852;43.086;25.634;2023-06-22T08:57:44;99207.00;;;26.16;56.40
58668;BME280;59852;43.086;25.634;2023-06-22T09:00:10;99199.28;;;26.41;57.20
58668;BME280;59852;43.086;25.634;2023-06-22T09:02:43;99196.03;;;26.52;56.19
58668;BME280;59852;43.086;25.634;2023-06-22T09:05:08;99197.22;;;26.43;56.25
58668;BME280;59852;43.086;25.634;2023-06-22T09:07:33;99201.63;;;26.64;56.46
58668;BME280;59852;43.086;25.634;2023-06-22T09:09:59;99204.94;;;26.59;57.33
58668;BME280;59852;43.086;25.634;2023-06-22T09:12:25;99204.31;;;26.64;55.03
58668;BME280;59852;43.086;25.634;2023-06-22T09:14:52;99201.19;;;26.54;56.16
58668;BME280;59852;43.086;25.634;2023-06-22T09:17:17;99196.09;;;26.66;56.47
58668;BME280;59852;43.086;25.634;2023-06-22T09:19:43;99193.81;;;26.69;56.06
58668;BME280;59852;43.086;25.634;2023-06-22T09:22:08;99198.13;;;26.57;56.54
58668;BME280;59852;43.086;25.634;2023-06-22T09:30:39;99184.56;;;26.78;55.49
58668;BME280;59852;43.086;25.634;2023-06-22T09:33:04;99195.94;;;26.94;55.69
58668;BME280;59852;43.086;25.634;2023-06-22T09:35:30;99184.44;;;27.13;55.48
58668;BME280;59852;43.086;25.634;2023-06-22T09:37:55;99195.19;;;27.39;54.99
58668;BME280;59852;43.086;25.634;2023-06-22T09:40:21;99185.91;;;27.35;54.43
58668;BME280;59852;43.086;25.634;2023-06-22T09:42:46;99187.34;;;27.05;53.92
58668;BME280;59852;43.086;25.634;2023-06-22T09:45:11;99184.66;;;27.18;55.24
58668;BME280;59852;43.086;25.634;2023-06-22T09:47:36;99186.13;;;27.34;54.15
58668;BME280;59852;43.086;25.634;2023-06-22T09:50:02;99176.38;;;27.53;54.94
58668;BME280;59852;43.086;25.634;2023-06-22T09:52:28;99179.06;;;27.53;55.00
58668;BME280;59852;43.086;25.634;2023-06-22T09:54:53;99172.03;;;27.58;54.23
58668;BME280;59852;43.086;25.634;2023-06-22T09:57:18;99170.78;;;27.61;53.64
58668;BME280;59852;43.086;25.634;2023-06-22T09:59:44;99166.47;;;27.60;55.31
58668;BME280;59852;43.086;25.634;2023-06-22T10:02:09;99174.94;;;27.17;56.45
58668;BME280;59852;43.086;25.634;2023-06-22T10:04:35;99167.91;;;27.03;57.13
58668;BME280;59852;43.086;25.634;2023-06-22T10:07:01;99170.38;;;27.51;56.91
58668;BME280;59852;43.086;25.634;2023-06-22T10:09:26;99169.56;;;27.70;55.05
58668;BME280;59852;43.086;25.634;2023-06-22T10:11:52;99165.03;;;27.57;56.28
58668;BME280;59852;43.086;25.634;2023-06-22T10:14:17;99167.88;;;27.89;53.73
58668;BME280;59852;43.086;25.634;2023-06-22T10:16:42;99163.53;;;27.88;53.43
58668;BME280;59852;43.086;25.634;2023-06-22T10:19:08;99165.03;;;27.84;54.63
58668;BME280;59852;43.086;25.634;2023-06-22T10:21:33;99167.00;;;28.01;53.11
58668;BME280;59852;43.086;25.634;2023-06-22T10:23:59;99167.06;;;27.88;52.46
58668;BME280;59852;43.086;25.634;2023-06-22T10:26:31;99169.09;;;27.99;50.98
58668;BME280;59852;43.086;25.634;2023-06-22T10:28:56;99173.00;;;28.10;51.24
58668;BME280;59852;43.086;25.634;2023-06-22T10:31:21;99168.06;;;28.00;50.64
58668;BME280;59852;43.086;25.634;2023-06-22T10:33:47;99162.56;;;27.69;49.66
58668;BME280;59852;43.086;25.634;2023-06-22T10:36:14;99162.94;;;27.79;49.79
58668;BME280;59852;43.086;25.634;2023-06-22T10:38:39;99156.84;;;28.17;50.37
58668;BME280;59852;43.086;25.634;2023-06-22T10:41:05;99157.22;;;28.20;48.55
58668;BME280;59852;43.086;25.634;2023-06-22T10:43:30;99150.59;;;28.29;51.37
58668;BME280;59852;43.086;25.634;2023-06-22T10:45:56;99151.44;;;28.23;50.38
58668;BME280;59852;43.086;25.634;2023-06-22T10:48:21;99147.09;;;28.29;51.56
58668;BME280;59852;43.086;25.634;2023-06-22T10:50:46;99155.31;;;28.41;50.22
58668;BME280;59852;43.086;25.634;2023-06-22T10:53:12;99149.75;;;28.36;49.82
58668;BME280;59852;43.086;25.634;2023-06-22T10:55:37;99141.25;;;28.39;50.48
58668;BME280;59852;43.086;25.634;2023-06-22T10:58:03;99148.19;;;28.01;49.95
58668;BME280;59852;43.086;25.634;2023-06-22T11:00:28;99144.44;;;28.09;50.11
58668;BME280;59852;43.086;25.634;2023-06-22T11:02:53;99139.97;;;28.41;48.11
58668;BME280;59852;43.086;25.634;2023-06-22T11:05:19;99142.53;;;28.29;46.91
58668;BME280;59852;43.086;25.634;2023-06-22T11:07:44;99146.88;;;28.31;47.81
58668;BME280;59852;43.086;25.634;2023-06-22T11:10:10;99129.63;;;28.45;45.54
58668;BME280;59852;43.086;25.634;2023-06-22T11:12:35;99140.91;;;28.60;46.10
58668;BME280;59852;43.086;25.634;2023-06-22T11:15:01;99144.09;;;28.50;42.96
58668;BME280;59852;43.086;25.634;2023-06-22T11:17:26;99146.38;;;28.53;42.19
58668;BME280;59852;43.086;25.634;2023-06-22T11:19:51;99141.03;;;28.40;43.14
58668;BME280;59852;43.086;25.634;2023-06-22T11:22:17;99158.72;;;28.61;42.47
58668;BME280;59852;43.086;25.634;2023-06-22T11:24:42;99150.47;;;28.56;40.54
58668;BME280;59852;43.086;25.634;2023-06-22T11:27:07;99153.16;;;28.63;40.00
58668;BME280;59852;43.086;25.634;2023-06-22T11:29:33;99150.41;;;28.69;40.13
58668;BME280;59852;43.086;25.634;2023-06-22T11:31:58;99147.34;;;28.59;38.93
58668;BME280;59852;43.086;25.634;2023-06-22T11:34:23;99149.91;;;28.47;39.11
58668;BME280;59852;43.086;25.634;2023-06-22T11:36:49;99153.16;;;28.63;38.83
58668;BME280;59852;43.086;25.634;2023-06-22T11:39:15;99153.72;;;28.71;39.26
58668;BME280;59852;43.086;25.634;2023-06-22T11:41:40;99142.56;;;28.99;38.66
58668;BME280;59852;43.086;25.634;2023-06-22T11:44:07;99139.94;;;28.86;40.13
58668;BME280;59852;43.086;25.634;2023-06-22T11:46:32;99138.59;;;28.70;40.18
58668;BME280;59852;43.086;25.634;2023-06-22T11:48:58;99139.53;;;28.89;42.16
58668;BME280;59852;43.086;25.634;2023-06-22T11:51:23;99138.22;;;28.98;40.73
58668;BME280;59852;43.086;25.634;2023-06-22T11:53:49;99136.03;;;28.82;40.56
58668;BME280;59852;43.086;25.634;2023-06-22T11:56:14;99130.53;;;29.02;40.71
58668;BME280;59852;43.086;25.634;2023-06-22T11:58:39;99128.41;;;29.10;39.83
58668;BME280;59852;43.086;25.634;2023-06-22T12:01:05;99131.97;;;29.04;39.75
58668;BME280;59852;43.086;25.634;2023-06-22T12:03:30;99126.69;;;29.16;39.07
58668;BME280;59852;43.086;25.634;2023-06-22T12:05:55;99115.28;;;29.21;39.48
58668;BME280;59852;43.086;25.634;2023-06-22T12:08:21;99113.31;;;29.28;40.33
58668;BME280;59852;43.086;25.634;2023-06-22T12:10:47;99118.34;;;29.24;40.45
58668;BME280;59852;43.086;25.634;2023-06-22T12:13:12;99114.75;;;29.05;40.76
58668;BME280;59852;43.086;25.634;2023-06-22T12:15:38;99117.84;;;29.09;41.88
58668;BME280;59852;43.086;25.634;2023-06-22T12:18:03;99114.03;;;29.17;41.38
58668;BME280;59852;43.086;25.634;2023-06-22T12:20:28;99111.56;;;29.15;40.50
58668;BME280;59852;43.086;25.634;2023-06-22T12:22:54;99104.81;;;29.31;40.97
58668;BME280;59852;43.086;25.634;2023-06-22T12:25:21;99108.34;;;29.31;39.81
58668;BME280;59852;43.086;25.634;2023-06-22T12:27:47;99104.78;;;29.12;40.49
58668;BME280;59852;43.086;25.634;2023-06-22T12:30:12;99101.53;;;29.47;42.53
58668;BME280;59852;43.086;25.634;2023-06-22T12:32:37;99105.00;;;29.29;43.68
58668;BME280;59852;43.086;25.634;2023-06-22T12:35:03;99104.91;;;29.42;42.22
58668;BME280;59852;43.086;25.634;2023-06-22T12:37:29;99110.34;;;29.61;40.64
58668;BME280;59852;43.086;25.634;2023-06-22T12:39:56;99095.81;;;29.37;39.97
58668;BME280;59852;43.086;25.634;2023-06-22T12:42:22;99105.78;;;29.36;39.63
58668;BME280;59852;43.086;25.634;2023-06-22T12:44:47;99107.97;;;29.46;38.61
58668;BME280;59852;43.086;25.634;2023-06-22T12:47:12;99105.78;;;29.36;38.69
58668;BME280;59852;43.086;25.634;2023-06-22T12:49:38;99101.75;;;29.46;39.03
58668;BME280;59852;43.086;25.634;2023-06-22T12:52:08;99093.91;;;29.19;39.66
58668;BME280;59852;43.086;25.634;2023-06-22T12:54:33;99097.44;;;28.95;39.63